Time;durP1;ratioP1;P1;durP2;ratioP2;P2;SDS_P1;SDS_P2;PMS_P1;PMS_P2;Temp;Humidity;BMP_temperature;BMP_pressure;BME280_temperature;BME280_humidity;BME280_pressure;Samples;Min_cycle;Max_cycle;Signal;HPM_P1;HPM_P2
2022/07/02 00:01:03;;;;;;;;;;;14.20;99.90;;;;;;5049621;28;19936;-66
2022/07/02 00:03:31;;;;;;;;;;;14.20;99.90;;;;;;5049966;28;20274;-67
2022/07/02 00:05:59;;;;;;;;;;;14.10;99.90;;;;;;5053724;28;20293;-66
2022/07/02 00:08:26;;;;;;;;;;;14.10;99.90;;;;;;5053662;28;19932;-66
2022/07/02 00:10:53;;;;;;;;;;;14.00;99.90;;;;;;5053520;28;19960;-67
2022/07/02 00:13:22;;;;;;;;;;;13.90;99.90;;;;;;5053494;28;19931;-66
2022/07/02 00:15:48;;;;;;;;;;;13.90;99.90;;;;;;5053516;28;19986;-66
2022/07/02 00:18:16;;;;;;;;;;;13.90;99.90;;;;;;5053219;28;19925;-66
2022/07/02 00:20:43;;;;;;;;;;;13.90;99.90;;;;;;5053534;28;19925;-66
2022/07/02 00:23:10;;;;;;;;;;;13.90;99.90;;;;;;5053316;28;20347;-66
2022/07/02 00:25:39;;;;;;;;;;;13.80;99.90;;;;;;5053030;28;20370;-66
2022/07/02 00:28:06;;;;;;;;;;;13.70;99.90;;;;;;5053463;28;19929;-66
2022/07/02 00:30:35;;;;;;;;;;;13.70;99.90;;;;;;5053019;28;19939;-67
2022/07/02 00:33:02;;;;;;;;;;;13.70;99.90;;;;;;5052951;28;19929;-66
2022/07/02 00:35:30;;;;;;;;;;;13.60;99.90;;;;;;5053098;28;19932;-66
2022/07/02 00:37:57;;;;;;;;;;;13.50;99.90;;;;;;5053166;28;19950;-66
2022/07/02 00:40:24;;;;;;;;;;;13.50;99.90;;;;;;5053243;28;20386;-66
2022/07/02 00:42:51;;;;;;;;;;;13.50;99.90;;;;;;5052777;28;20370;-66
2022/07/02 00:45:18;;;;;;;;;;;13.50;99.90;;;;;;5052638;28;20363;-66
2022/07/02 00:47:46;;;;;;;;;;;13.50;99.90;;;;;;5052646;28;19925;-66
2022/07/02 00:50:13;;;;;;;;;;;13.50;99.90;;;;;;5052193;28;19929;-66
2022/07/02 00:52:40;;;;;;;;;;;13.40;99.90;;;;;;5052795;28;19925;-66
2022/07/02 00:55:07;;;;;;;;;;;13.30;99.90;;;;;;5052681;28;19967;-66
2022/07/02 00:57:34;;;;;;;;;;;13.20;99.90;;;;;;5052844;28;19928;-66
2022/07/02 01:00:01;;;;;;;;;;;13.20;99.90;;;;;;5051836;28;20424;-67
2022/07/02 01:02:28;;;;;;;;;;;13.10;99.90;;;;;;5052603;28;19929;-67
2022/07/02 01:04:56;;;;;;;;;;;13.10;99.90;;;;;;5052393;28;20277;-67
2022/07/02 01:07:23;;;;;;;;;;;13.10;99.90;;;;;;5052649;28;20447;-67
2022/07/02 01:12:35;;;;;;;;;;;13.20;99.90;;;;;;5052280;28;20307;-67
2022/07/02 01:15:02;;;;;;;;;;;13.20;99.90;;;;;;5051663;28;19960;-67
2022/07/02 01:17:29;;;;;;;;;;;13.10;99.90;;;;;;5052139;28;19970;-67
2022/07/02 01:19:57;;;;;;;;;;;13.10;99.90;;;;;;5052071;28;20357;-66
2022/07/02 01:22:26;;;;;;;;;;;13.20;99.90;;;;;;5052232;28;19929;-67
2022/07/02 01:24:53;;;;;;;;;;;13.10;99.90;;;;;;5051673;28;20414;-67
2022/07/02 01:27:21;;;;;;;;;;;13.10;99.90;;;;;;5052562;28;19925;-67
2022/07/02 01:29:48;;;;;;;;;;;13.20;99.90;;;;;;5051404;28;19924;-67
2022/07/02 01:32:15;;;;;;;;;;;13.20;99.90;;;;;;5051391;28;20393;-66
2022/07/02 01:34:42;;;;;;;;;;;13.20;99.90;;;;;;5051422;28;19928;-67
2022/07/02 01:37:10;;;;;;;;;;;13.10;99.90;;;;;;5051857;28;19929;-67
2022/07/02 01:39:39;;;;;;;;;;;13.20;99.90;;;;;;5051626;28;20454;-67
2022/07/02 01:42:06;;;;;;;;;;;13.10;99.90;;;;;;5051645;28;19925;-67
2022/07/02 01:44:33;;;;;;;;;;;13.10;99.90;;;;;;5051920;28;19924;-67
2022/07/02 01:47:02;;;;;;;;;;;13.00;99.90;;;;;;5051571;28;19925;-67
2022/07/02 01:49:29;;;;;;;;;;;13.00;99.90;;;;;;5051268;28;20464;-67
2022/07/02 01:51:57;;;;;;;;;;;13.00;99.90;;;;;;5051201;28;19925;-67
2022/07/02 01:54:24;;;;;;;;;;;12.90;99.90;;;;;;5051385;28;19971;-67
2022/07/02 01:56:52;;;;;;;;;;;12.90;99.90;;;;;;5051684;28;19928;-66
2022/07/02 01:59:19;;;;;;;;;;;13.00;99.90;;;;;;5050636;28;20339;-67
2022/07/02 02:01:46;;;;;;;;;;;12.90;99.90;;;;;;5051404;28;20296;-67
2022/07/02 02:04:13;;;;;;;;;;;12.90;99.90;;;;;;5051343;28;19925;-66
2022/07/02 02:06:40;;;;;;;;;;;12.90;99.90;;;;;;5051375;28;20273;-67
2022/07/02 02:09:07;;;;;;;;;;;12.90;99.90;;;;;;5051774;28;19925;-67
2022/07/02 02:11:34;;;;;;;;;;;12.80;99.90;;;;;;5051366;28;19936;-67
2022/07/02 02:14:02;;;;;;;;;;;12.80;99.90;;;;;;5050972;28;19928;-66
2022/07/02 02:16:29;;;;;;;;;;;12.80;99.90;;;;;;5051381;28;19955;-67
2022/07/02 02:18:57;;;;;;;;;;;12.70;99.90;;;;;;5050997;28;19929;-67
2022/07/02 02:21:24;;;;;;;;;;;12.70;99.90;;;;;;5051437;28;20355;-67
2022/07/02 02:23:51;;;;;;;;;;;12.50;99.90;;;;;;5051012;28;19929;-66
2022/07/02 02:26:18;;;;;;;;;;;12.40;99.90;;;;;;5051245;28;19978;-66
2022/07/02 02:28:45;;;;;;;;;;;12.50;99.90;;;;;;5050072;28;19924;-65
2022/07/02 02:31:13;;;;;;;;;;;12.50;99.90;;;;;;5050972;28;19932;-67
2022/07/02 02:33:40;;;;;;;;;;;12.40;99.90;;;;;;5050662;28;19924;-66
2022/07/02 02:36:07;;;;;;;;;;;12.40;99.90;;;;;;5050861;28;19931;-66
2022/07/02 02:38:36;;;;;;;;;;;12.30;99.90;;;;;;5050984;28;20375;-67
2022/07/02 02:41:05;;;;;;;;;;;12.30;99.90;;;;;;5050651;28;19929;-67
2022/07/02 02:43:32;;;;;;;;;;;12.30;99.90;;;;;;5050445;28;19925;-67
2022/07/02 02:45:59;;;;;;;;;;;12.30;99.90;;;;;;5051182;28;19936;-67
2022/07/02 02:48:27;;;;;;;;;;;12.30;99.90;;;;;;5050798;28;19979;-67
2022/07/02 02:50:54;;;;;;;;;;;12.30;99.90;;;;;;5050682;28;19924;-66
2022/07/02 02:53:20;;;;;;;;;;;12.20;99.90;;;;;;5050703;28;19925;-67
2022/07/02 02:55:47;;;;;;;;;;;12.20;99.90;;;;;;5050640;28;19925;-67
2022/07/02 02:58:14;;;;;;;;;;;12.20;99.90;;;;;;5050406;28;20384;-67
2022/07/02 03:00:41;;;;;;;;;;;12.20;99.90;;;;;;5050146;28;19928;-67
2022/07/02 03:03:07;;;;;;;;;;;12.30;99.90;;;;;;5050293;28;20343;-67
2022/07/02 03:05:36;;;;;;;;;;;12.30;99.90;;;;;;5050320;28;20029;-66
2022/07/02 03:08:02;;;;;;;;;;;12.40;99.90;;;;;;5050381;28;20301;-67
2022/07/02 03:10:29;;;;;;;;;;;12.30;99.90;;;;;;5049927;28;19925;-67
2022/07/02 03:12:56;;;;;;;;;;;12.20;99.90;;;;;;5050134;28;19924;-66
2022/07/02 03:15:23;;;;;;;;;;;12.20;99.90;;;;;;5050072;28;20388;-66
2022/07/02 03:17:49;;;;;;;;;;;12.20;99.90;;;;;;5050225;28;19999;-66
2022/07/02 03:20:16;;;;;;;;;;;12.30;99.90;;;;;;5050228;28;19933;-67
2022/07/02 03:22:44;;;;;;;;;;;12.30;99.90;;;;;;5050068;28;19968;-66
2022/07/02 03:25:11;;;;;;;;;;;12.30;99.90;;;;;;5049753;28;20278;-66
2022/07/02 03:27:38;;;;;;;;;;;12.20;99.90;;;;;;5050046;28;19925;-66
2022/07/02 03:30:05;;;;;;;;;;;12.30;99.90;;;;;;5049840;28;20002;-67
2022/07/02 03:32:32;;;;;;;;;;;12.30;99.90;;;;;;5050070;28;19975;-67
2022/07/02 03:34:59;;;;;;;;;;;12.20;99.90;;;;;;5050019;28;19933;-66
2022/07/02 03:37:28;;;;;;;;;;;12.20;99.90;;;;;;5050131;28;20355;-66
2022/07/02 03:39:56;;;;;;;;;;;12.30;99.90;;;;;;5049400;28;19929;-67
2022/07/02 03:42:23;;;;;;;;;;;12.30;99.90;;;;;;5049880;28;20359;-66
2022/07/02 03:44:50;;;;;;;;;;;12.20;99.90;;;;;;5049551;28;19974;-66
2022/07/02 03:47:17;;;;;;;;;;;12.20;99.90;;;;;;5049581;28;19929;-66
2022/07/02 03:49:43;;;;;;;;;;;12.20;99.90;;;;;;5049831;28;19928;-66
2022/07/02 03:52:10;;;;;;;;;;;12.20;99.90;;;;;;5049748;28;19924;-66
2022/07/02 03:54:37;;;;;;;;;;;12.00;99.90;;;;;;5049660;28;19964;-66
2022/07/02 03:57:06;;;;;;;;;;;11.90;99.90;;;;;;5050009;28;19925;-66
2022/07/02 03:59:32;;;;;;;;;;;12.00;99.90;;;;;;5050046;28;19925;-66
2022/07/02 04:01:59;;;;;;;;;;;12.00;99.90;;;;;;5049983;28;19928;-66
2022/07/02 04:04:26;;;;;;;;;;;12.00;99.90;;;;;;5049749;28;19932;-66
2022/07/02 04:06:52;;;;;;;;;;;12.00;99.90;;;;;;5050262;28;19925;-66
2022/07/02 04:09:19;;;;;;;;;;;12.10;99.90;;;;;;5049668;28;19929;-66
2022/07/02 04:11:46;;;;;;;;;;;12.00;99.90;;;;;;5049955;28;19928;-67
2022/07/02 04:14:14;;;;;;;;;;;11.90;99.90;;;;;;5049379;28;20392;-66
2022/07/02 04:16:41;;;;;;;;;;;12.10;99.90;;;;;;5049997;28;20396;-65
2022/07/02 04:19:08;;;;;;;;;;;12.10;99.90;;;;;;5049403;28;19925;-66
2022/07/02 04:21:34;;;;;;;;;;;12.10;99.90;;;;;;5049631;28;19929;-66
2022/07/02 04:24:01;;;;;;;;;;;12.20;99.90;;;;;;5049189;28;19928;-66
2022/07/02 04:26:28;;;;;;;;;;;12.30;99.90;;;;;;5049333;28;20323;-66
2022/07/02 04:28:55;;;;;;;;;;;12.40;99.90;;;;;;5049228;28;20461;-66
2022/07/02 04:31:23;;;;;;;;;;;12.40;99.90;;;;;;5049662;28;19925;-67
2022/07/02 04:33:50;;;;;;;;;;;12.50;99.90;;;;;;5049079;28;20035;-66
2022/07/02 04:36:16;;;;;;;;;;;12.60;99.90;;;;;;5049198;28;19936;-66
2022/07/02 04:38:43;;;;;;;;;;;12.60;99.90;;;;;;5049525;28;19925;-67
2022/07/02 04:41:10;;;;;;;;;;;12.70;99.90;;;;;;5049187;28;19924;-66
2022/07/02 04:43:37;;;;;;;;;;;12.80;99.90;;;;;;5048865;28;20428;-66
2022/07/02 04:46:03;;;;;;;;;;;12.80;99.90;;;;;;5049251;28;20032;-67
2022/07/02 04:48:32;;;;;;;;;;;12.80;99.90;;;;;;5049181;28;19982;-67
2022/07/02 04:50:58;;;;;;;;;;;12.80;99.90;;;;;;5050051;28;19925;-67
2022/07/02 04:53:25;;;;;;;;;;;12.90;99.90;;;;;;5074299;23;20400;-67
2022/07/02 04:55:52;;;;;;;;;;;13.10;99.90;;;;;;5044896;28;19928;-67
2022/07/02 04:58:19;;;;;;;;;;;13.30;99.90;;;;;;5069790;28;20036;-67
2022/07/02 05:00:45;;;;;;;;;;;13.30;99.90;;;;;;5052733;28;20016;-66
2022/07/02 05:03:12;;;;;;;;;;;13.40;99.90;;;;;;5046595;28;20027;-66
2022/07/02 05:05:40;;;;;;;;;;;13.50;99.90;;;;;;5053015;28;20019;-66
2022/07/02 05:08:06;;;;;;;;;;;13.60;99.90;;;;;;5037137;28;20026;-66
2022/07/02 05:10:33;;;;;;;;;;;13.70;99.90;;;;;;5033517;28;19964;-66
2022/07/02 05:12:59;;;;;;;;;;;13.90;99.90;;;;;;5052411;28;19932;-66
2022/07/02 05:15:26;;;;;;;;;;;13.80;99.90;;;;;;5053444;28;19964;-66
2022/07/02 05:17:53;;;;;;;;;;;13.90;99.90;;;;;;5069088;28;19960;-67
2022/07/02 05:20:19;;;;;;;;;;;14.00;99.90;;;;;;5048374;28;20007;-67
2022/07/02 05:22:47;;;;;;;;;;;14.10;99.90;;;;;;5047262;28;19925;-67
2022/07/02 05:25:14;;;;;;;;;;;14.30;99.90;;;;;;5040412;28;20349;-67
2022/07/02 05:27:41;;;;;;;;;;;14.30;99.90;;;;;;5051643;28;20460;-67
2022/07/02 05:30:08;;;;;;;;;;;14.30;99.90;;;;;;5042618;28;20015;-67
2022/07/02 05:32:34;;;;;;;;;;;14.40;99.90;;;;;;5051522;28;20020;-66
2022/07/02 05:35:01;;;;;;;;;;;14.50;99.90;;;;;;5043335;28;19971;-66
2022/07/02 05:37:28;;;;;;;;;;;14.60;99.90;;;;;;5046519;28;19928;-69
2022/07/02 05:39:56;;;;;;;;;;;14.60;99.90;;;;;;5041743;28;20293;-66
2022/07/02 05:42:23;;;;;;;;;;;14.70;99.90;;;;;;5043730;28;19986;-66
2022/07/02 05:44:49;;;;;;;;;;;14.70;99.90;;;;;;5039663;28;20454;-66
2022/07/02 05:47:16;;;;;;;;;;;14.80;99.90;;;;;;5047297;28;19931;-69
2022/07/02 05:49:43;;;;;;;;;;;14.90;99.90;;;;;;5038774;28;20361;-66
2022/07/02 05:52:09;;;;;;;;;;;14.90;99.90;;;;;;5039337;28;19928;-66
2022/07/02 05:54:36;;;;;;;;;;;15.10;99.90;;;;;;5044209;28;19925;-68
2022/07/02 05:57:05;;;;;;;;;;;15.10;99.90;;;;;;5040477;28;19926;-69
2022/07/02 05:59:32;;;;;;;;;;;15.30;99.90;;;;;;5044041;28;19978;-66
2022/07/02 06:01:58;;;;;;;;;;;15.40;99.90;;;;;;5041626;28;19925;-69
2022/07/02 06:04:25;;;;;;;;;;;15.50;99.90;;;;;;5037643;28;19989;-67
2022/07/02 06:09:36;;;;;;;;;;;15.70;99.90;;;;;;5037608;28;19927;-66
2022/07/02 06:12:03;;;;;;;;;;;15.90;99.90;;;;;;5043852;28;19948;-66
2022/07/02 06:14:31;;;;;;;;;;;16.00;99.90;;;;;;5026047;28;20411;-68
2022/07/02 06:16:58;;;;;;;;;;;16.10;99.90;;;;;;5045023;28;20432;-67
2022/07/02 06:19:24;;;;;;;;;;;16.20;99.90;;;;;;5040021;28;19928;-66
2022/07/02 06:21:51;;;;;;;;;;;16.40;99.90;;;;;;5044573;28;20364;-66
2022/07/02 06:24:18;;;;;;;;;;;16.40;99.90;;;;;;5041686;28;19991;-67
2022/07/02 06:26:45;;;;;;;;;;;16.60;99.90;;;;;;5042718;28;19925;-66
2022/07/02 06:29:11;;;;;;;;;;;16.70;99.90;;;;;;5038471;28;19979;-67
2022/07/02 06:31:40;;;;;;;;;;;16.80;99.90;;;;;;5041414;28;19952;-66
2022/07/02 06:34:06;;;;;;;;;;;17.00;99.90;;;;;;5042153;28;19932;-64
2022/07/02 06:36:33;;;;;;;;;;;17.10;99.90;;;;;;5047222;28;19928;-67
2022/07/02 06:39:00;;;;;;;;;;;17.20;99.90;;;;;;5036128;28;19932;-66
2022/07/02 06:44:11;;;;;;;;;;;17.40;99.90;;;;;;5045541;28;20387;-66
2022/07/02 06:46:38;;;;;;;;;;;17.50;99.90;;;;;;5038683;28;19982;-67
2022/07/02 06:49:06;;;;;;;;;;;17.60;99.90;;;;;;5041694;28;19924;-66
2022/07/02 06:51:33;;;;;;;;;;;17.80;99.90;;;;;;5041567;28;19928;-66
2022/07/02 06:54:01;;;;;;;;;;;17.90;99.90;;;;;;5026265;28;23260;-66
2022/07/02 06:56:29;;;;;;;;;;;18.00;99.90;;;;;;5044281;28;19932;-70
2022/07/02 06:58:56;;;;;;;;;;;18.00;99.90;;;;;;5040868;28;20438;-66
2022/07/02 07:01:23;;;;;;;;;;;18.20;99.90;;;;;;5042397;28;19933;-67
2022/07/02 07:03:50;;;;;;;;;;;18.40;99.90;;;;;;5040613;28;19983;-67
2022/07/02 07:06:19;;;;;;;;;;;18.50;99.90;;;;;;5042175;28;20335;-68
2022/07/02 07:08:52;;;;;;;;;;;18.50;99.90;;;;;;5042448;28;19928;-67
2022/07/02 07:11:19;;;;;;;;;;;18.60;99.90;;;;;;5043562;28;20316;-68
2022/07/02 07:13:45;;;;;;;;;;;18.70;99.90;;;;;;5036926;28;19933;-66
2022/07/02 07:16:12;;;;;;;;;;;18.80;99.90;;;;;;5046905;28;19925;-65
2022/07/02 07:18:39;;;;;;;;;;;18.90;99.90;;;;;;5042939;28;20039;-68
2022/07/02 07:21:06;;;;;;;;;;;19.10;99.90;;;;;;5037834;28;19925;-67
2022/07/02 07:23:34;;;;;;;;;;;19.20;99.90;;;;;;5039384;28;19924;-67
2022/07/02 07:26:01;;;;;;;;;;;19.30;99.90;;;;;;5042232;28;19928;-67
2022/07/02 07:28:28;;;;;;;;;;;19.30;99.90;;;;;;5047919;28;19928;-68
2022/07/02 07:30:54;;;;;;;;;;;19.40;99.90;;;;;;5049791;28;19978;-67
2022/07/02 07:33:21;;;;;;;;;;;19.40;99.90;;;;;;5050250;28;19935;-71
2022/07/02 07:35:48;;;;;;;;;;;19.60;99.90;;;;;;5045938;28;19928;-65
2022/07/02 07:38:15;;;;;;;;;;;19.60;99.90;;;;;;5041515;28;20354;-66
2022/07/02 07:40:43;;;;;;;;;;;19.70;99.90;;;;;;5040329;28;19925;-69
2022/07/02 07:43:10;;;;;;;;;;;19.70;99.90;;;;;;5040778;28;20399;-66
2022/07/02 07:45:36;;;;;;;;;;;19.80;99.90;;;;;;5043996;28;20332;-64
2022/07/02 07:48:03;;;;;;;;;;;19.90;99.90;;;;;;5047310;28;19983;-66
2022/07/02 07:50:30;;;;;;;;;;;20.00;99.90;;;;;;5045508;28;19936;-69
2022/07/02 07:52:57;;;;;;;;;;;20.10;99.90;;;;;;5041942;28;19940;-70
2022/07/02 07:55:24;;;;;;;;;;;20.10;99.90;;;;;;5042044;28;19933;-67
2022/07/02 07:57:52;;;;;;;;;;;20.20;99.90;;;;;;5041258;28;19932;-66
2022/07/02 08:00:19;;;;;;;;;;;20.30;99.90;;;;;;5047668;28;20453;-69
2022/07/02 08:02:45;;;;;;;;;;;20.40;99.90;;;;;;5043095;28;19929;-70
2022/07/02 08:05:12;;;;;;;;;;;20.40;99.90;;;;;;5048617;28;20445;-68
2022/07/02 08:07:39;;;;;;;;;;;20.50;99.90;;;;;;5050429;28;19929;-68
2022/07/02 08:10:07;;;;;;;;;;;20.70;99.90;;;;;;5040644;28;19929;-69
2022/07/02 08:12:34;;;;;;;;;;;20.90;99.90;;;;;;5035831;28;19933;-68
2022/07/02 08:15:03;;;;;;;;;;;21.00;99.90;;;;;;5041118;28;19926;-68
2022/07/02 08:17:30;;;;;;;;;;;21.20;99.90;;;;;;5047545;28;19932;-68
2022/07/02 08:19:56;;;;;;;;;;;21.30;99.90;;;;;;5047060;28;19925;-70
2022/07/02 08:22:23;;;;;;;;;;;21.50;99.90;;;;;;5039638;28;19983;-68
2022/07/02 08:24:50;;;;;;;;;;;21.60;99.90;;;;;;5040261;28;19929;-72
2022/07/02 08:27:17;;;;;;;;;;;21.80;99.90;;;;;;5051340;28;20358;-74
2022/07/02 08:29:44;;;;;;;;;;;22.00;99.90;;;;;;5049847;28;19925;-68
2022/07/02 08:32:12;;;;;;;;;;;22.00;99.90;;;;;;5048334;28;20384;-68
2022/07/02 08:34:39;;;;;;;;;;;21.90;99.90;;;;;;5042940;28;19975;-69
2022/07/02 08:37:06;;;;;;;;;;;21.80;99.90;;;;;;5042435;28;19987;-67
2022/07/02 08:39:33;;;;;;;;;;;21.80;99.90;;;;;;5047154;28;20396;-68
2022/07/02 08:42:00;;;;;;;;;;;21.70;99.90;;;;;;5046533;28;19932;-67
2022/07/02 08:44:27;;;;;;;;;;;21.80;99.90;;;;;;5040390;28;19950;-67
2022/07/02 08:46:54;;;;;;;;;;;21.70;99.90;;;;;;5051537;28;20466;-68
2022/07/02 08:49:22;;;;;;;;;;;21.70;99.90;;;;;;5052360;28;20022;-65
2022/07/02 08:51:52;;;;;;;;;;;21.70;99.90;;;;;;5035513;28;19929;-67
2022/07/02 08:54:20;;;;;;;;;;;21.70;99.90;;;;;;5054989;28;19929;-67
2022/07/02 08:56:47;;;;;;;;;;;21.70;99.90;;;;;;5045161;28;20399;-67
2022/07/02 08:59:14;;;;;;;;;;;21.90;99.90;;;;;;5053172;28;19929;-68
2022/07/02 09:01:41;;;;;;;;;;;21.90;99.90;;;;;;5052427;28;19935;-68
2022/07/02 09:04:08;;;;;;;;;;;22.00;99.90;;;;;;5048617;28;19932;-68
2022/07/02 09:06:37;;;;;;;;;;;22.10;99.90;;;;;;5049064;28;19924;-67
2022/07/02 09:09:04;;;;;;;;;;;22.20;99.90;;;;;;5047864;28;19931;-67
2022/07/02 09:11:31;;;;;;;;;;;22.10;99.90;;;;;;5050134;28;19925;-67
2022/07/02 09:13:57;;;;;;;;;;;22.00;99.90;;;;;;5042230;28;19933;-67
2022/07/02 09:16:25;;;;;;;;;;;22.10;99.90;;;;;;5063218;28;19928;-67
2022/07/02 09:18:52;;;;;;;;;;;22.30;99.90;;;;;;5046266;28;19929;-66
2022/07/02 09:21:18;;;;;;;;;;;22.30;99.90;;;;;;5045508;28;19925;-68
2022/07/02 09:23:47;;;;;;;;;;;22.40;99.90;;;;;;5049848;28;19928;-68
2022/07/02 09:26:17;;;;;;;;;;;22.50;99.90;;;;;;5044808;28;19929;-67
2022/07/02 09:28:51;;;;;;;;;;;22.60;99.90;;;;;;5044770;28;19925;-66
2022/07/02 09:31:18;;;;;;;;;;;22.90;99.90;;;;;;5049425;28;20477;-68
2022/07/02 09:33:44;;;;;;;;;;;23.00;99.90;;;;;;5048181;28;19925;-69
2022/07/02 09:36:12;;;;;;;;;;;23.10;99.90;;;;;;5052212;28;19925;-67
2022/07/02 09:38:43;;;;;;;;;;;23.30;99.90;;;;;;5058839;28;19925;-68
2022/07/02 09:41:13;;;;;;;;;;;23.20;99.90;;;;;;5053080;28;19925;-68
2022/07/02 09:43:40;;;;;;;;;;;23.30;99.90;;;;;;5052346;28;20421;-67
2022/07/02 09:46:15;;;;;;;;;;;23.10;99.90;;;;;;5052895;28;19929;-68
2022/07/02 09:48:41;;;;;;;;;;;23.00;99.90;;;;;;5051073;28;19928;-69
2022/07/02 09:51:08;;;;;;;;;;;23.10;99.90;;;;;;5045159;28;19925;-68
2022/07/02 09:53:35;;;;;;;;;;;23.00;99.90;;;;;;5051512;28;19932;-69
2022/07/02 09:56:04;;;;;;;;;;;23.00;99.90;;;;;;5044942;28;20416;-68
2022/07/02 09:58:34;;;;;;;;;;;23.00;99.90;;;;;;5065459;28;19924;-68
2022/07/02 10:01:01;;;;;;;;;;;23.10;99.90;;;;;;5052647;28;19936;-68
2022/07/02 10:03:28;;;;;;;;;;;23.20;99.90;;;;;;5052207;28;20388;-68
2022/07/02 10:05:56;;;;;;;;;;;23.40;99.90;;;;;;5038260;28;19975;-68
2022/07/02 10:08:23;;;;;;;;;;;23.30;99.90;;;;;;5046456;28;20058;-68
2022/07/02 10:10:50;;;;;;;;;;;23.30;99.90;;;;;;5050784;28;19947;-68
2022/07/02 10:13:17;;;;;;;;;;;23.10;99.90;;;;;;5042850;28;20018;-68
2022/07/02 10:15:49;;;;;;;;;;;23.20;99.90;;;;;;5078396;28;20396;-68
2022/07/02 10:18:17;;;;;;;;;;;23.40;99.90;;;;;;5051794;28;19929;-68
2022/07/02 10:20:43;;;;;;;;;;;23.60;99.90;;;;;;5051755;28;20334;-69
2022/07/02 10:23:10;;;;;;;;;;;23.50;99.90;;;;;;5043329;28;19979;-68
2022/07/02 10:25:37;;;;;;;;;;;23.40;99.90;;;;;;5045195;28;19925;-69
2022/07/02 10:28:04;;;;;;;;;;;23.60;99.90;;;;;;5051900;28;19978;-69
2022/07/02 10:30:32;;;;;;;;;;;23.80;99.90;;;;;;5049953;28;20412;-68
2022/07/02 10:33:03;;;;;;;;;;;23.80;99.90;;;;;;5042765;28;20460;-68
2022/07/02 10:35:31;;;;;;;;;;;23.60;99.90;;;;;;5043431;28;20047;-68
2022/07/02 10:37:58;;;;;;;;;;;23.70;99.90;;;;;;5042847;28;19925;-68
2022/07/02 10:40:26;;;;;;;;;;;23.80;99.90;;;;;;5051287;28;19963;-69
2022/07/02 10:42:57;;;;;;;;;;;23.80;99.90;;;;;;5046860;28;19933;-68
2022/07/02 10:45:24;;;;;;;;;;;23.90;99.90;;;;;;5043719;28;19925;-69
2022/07/02 10:47:59;;;;;;;;;;;23.90;99.90;;;;;;5046641;28;19929;-68
2022/07/02 10:50:38;;;;;;;;;;;24.00;99.90;;;;;;5047306;28;19929;-68
2022/07/02 10:53:07;;;;;;;;;;;23.90;99.90;;;;;;5047699;28;19925;-68
2022/07/02 10:55:34;;;;;;;;;;;24.10;99.90;;;;;;5051612;28;19924;-69
2022/07/02 10:58:01;;;;;;;;;;;24.30;99.90;;;;;;5047386;28;20450;-68
2022/07/02 11:00:29;;;;;;;;;;;24.60;99.90;;;;;;5049699;28;19931;-69
2022/07/02 11:02:57;;;;;;;;;;;24.50;99.90;;;;;;5047895;28;19933;-69
2022/07/02 11:05:23;;;;;;;;;;;24.40;99.90;;;;;;5059769;28;19925;-68
2022/07/02 11:07:52;;;;;;;;;;;24.30;99.90;;;;;;5048651;28;19978;-69
2022/07/02 11:10:26;;;;;;;;;;;24.50;99.90;;;;;;5043777;28;20011;-68
2022/07/02 11:12:54;;;;;;;;;;;24.50;99.90;;;;;;5045126;28;19991;-70
2022/07/02 11:15:26;;;;;;;;;;;24.70;99.90;;;;;;5040639;28;19925;-71
2022/07/02 11:17:53;;;;;;;;;;;24.50;99.90;;;;;;5042763;28;19925;-68
2022/07/02 11:20:25;;;;;;;;;;;24.70;99.90;;;;;;5042001;28;19933;-69
2022/07/02 11:22:53;;;;;;;;;;;25.20;99.90;;;;;;5066482;28;19929;-69
2022/07/02 11:25:20;;;;;;;;;;;26.00;99.90;;;;;;5040497;28;19929;-69
2022/07/02 11:27:55;;;;;;;;;;;26.50;99.90;;;;;;5044180;28;20028;-69
2022/07/02 11:30:24;;;;;;;;;;;26.60;99.90;;;;;;5049910;28;19929;-68
2022/07/02 11:32:50;;;;;;;;;;;26.50;99.90;;;;;;5039638;28;19925;-69
2022/07/02 11:35:17;;;;;;;;;;;26.40;99.90;;;;;;5044417;28;19978;-69
2022/07/02 11:37:44;;;;;;;;;;;26.60;99.90;;;;;;5041468;28;19925;-69
2022/07/02 11:40:19;;;;;;;;;;;26.70;99.90;;;;;;5050617;28;19924;-68
2022/07/02 11:42:46;;;;;;;;;;;27.40;99.90;;;;;;5039890;28;19932;-68
2022/07/02 11:45:13;;;;;;;;;;;28.30;99.90;;;;;;5044264;28;19958;-68
2022/07/02 11:47:43;;;;;;;;;;;28.90;99.90;;;;;;5039048;28;19929;-69
2022/07/02 11:50:10;;;;;;;;;;;29.80;99.90;;;;;;5043625;28;19932;-69
2022/07/02 11:52:37;;;;;;;;;;;30.60;99.90;;;;;;5048384;28;20415;-69
2022/07/02 11:55:04;;;;;;;;;;;30.50;99.90;;;;;;5050281;28;19978;-69
2022/07/02 11:57:34;;;;;;;;;;;31.80;99.90;;;;;;5045611;28;19925;-69
2022/07/02 12:00:01;;;;;;;;;;;32.60;99.90;;;;;;5050279;28;19925;-71
2022/07/02 12:02:36;;;;;;;;;;;32.40;99.90;;;;;;5052699;28;19924;-70
2022/07/02 12:05:13;;;;;;;;;;;32.90;99.90;;;;;;5051369;28;20381;-67
2022/07/02 12:07:41;;;;;;;;;;;33.70;99.90;;;;;;5046981;28;19925;-68
2022/07/02 12:10:08;;;;;;;;;;;35.30;99.90;;;;;;5050583;28;19956;-68
2022/07/02 12:12:37;;;;;;;;;;;35.00;99.90;;;;;;5054618;28;19925;-67
2022/07/02 12:15:04;;;;;;;;;;;33.10;99.90;;;;;;5049385;28;19925;-73
2022/07/02 12:17:31;;;;;;;;;;;33.70;99.90;;;;;;5046105;28;19938;-65
2022/07/02 12:19:57;;;;;;;;;;;33.80;99.90;;;;;;5047705;28;20355;-68
2022/07/02 12:22:28;;;;;;;;;;;34.60;99.90;;;;;;5055332;28;19925;-69
2022/07/02 12:24:55;;;;;;;;;;;35.00;99.90;;;;;;5053527;28;19978;-68
2022/07/02 12:27:23;;;;;;;;;;;36.10;99.90;;;;;;5050640;28;19931;-68
2022/07/02 12:29:54;;;;;;;;;;;36.80;99.90;;;;;;5049946;28;20343;-69
2022/07/02 12:32:21;;;;;;;;;;;36.70;99.90;;;;;;5053351;28;19925;-68
2022/07/02 12:34:49;;;;;;;;;;;36.30;99.90;;;;;;5054248;28;19925;-68
2022/07/02 12:37:23;;;;;;;;;;;36.30;99.90;;;;;;5044157;28;20380;-68
2022/07/02 12:39:50;;;;;;;;;;;36.20;99.90;;;;;;5051318;28;19932;-68
2022/07/02 12:42:19;;;;;;;;;;;36.20;99.90;;;;;;5052201;28;20384;-69
2022/07/02 12:44:54;;;;;;;;;;;35.30;99.90;;;;;;5055477;28;19982;-68
2022/07/02 12:47:25;;;;;;;;;;;36.10;99.90;;;;;;5052725;28;19924;-68
2022/07/02 12:49:53;;;;;;;;;;;35.20;99.90;;;;;;5047508;28;19925;-69
2022/07/02 12:52:20;;;;;;;;;;;35.00;99.90;;;;;;5047125;28;20345;-69
2022/07/02 12:54:47;;;;;;;;;;;34.70;99.90;;;;;;5054043;28;19929;-68
2022/07/02 12:57:17;;;;;;;;;;;34.30;99.90;;;;;;5051426;28;19935;-71
2022/07/02 12:59:45;;;;;;;;;;;34.20;99.90;;;;;;5042014;28;19925;-68
2022/07/02 13:02:18;;;;;;;;;;;35.10;99.90;;;;;;5053102;28;19974;-69
2022/07/02 13:04:45;;;;;;;;;;;35.30;99.90;;;;;;5053135;28;20297;-69
2022/07/02 13:07:14;;;;;;;;;;;35.50;99.90;;;;;;5050571;28;19929;-68
2022/07/02 13:09:40;;;;;;;;;;;35.50;99.90;;;;;;5048256;28;19931;-69
2022/07/02 13:12:07;;;;;;;;;;;36.70;99.90;;;;;;5044461;28;19929;-68
2022/07/02 13:14:34;;;;;;;;;;;36.20;99.90;;;;;;5045495;28;20447;-68
2022/07/02 13:17:01;;;;;;;;;;;36.60;99.90;;;;;;5040804;28;19925;-67
2022/07/02 13:19:29;;;;;;;;;;;37.00;99.90;;;;;;5044078;28;19929;-67
2022/07/02 13:21:56;;;;;;;;;;;38.30;99.90;;;;;;5042818;28;19929;-67
2022/07/02 13:24:23;;;;;;;;;;;38.90;99.90;;;;;;5044926;28;19924;-67
2022/07/02 13:26:49;;;;;;;;;;;39.10;99.90;;;;;;5046214;28;19929;-68
2022/07/02 13:29:16;;;;;;;;;;;38.20;99.90;;;;;;5041979;28;19925;-68
2022/07/02 13:31:43;;;;;;;;;;;37.40;99.90;;;;;;5045021;28;20077;-68
2022/07/02 13:34:10;;;;;;;;;;;36.60;99.90;;;;;;5057800;28;19925;-68
2022/07/02 13:36:38;;;;;;;;;;;35.80;99.90;;;;;;5062020;28;19928;-69
2022/07/02 13:39:05;;;;;;;;;;;34.50;99.90;;;;;;5041413;28;19932;-66
2022/07/02 13:41:31;;;;;;;;;;;34.50;99.90;;;;;;5045583;28;19925;-68
2022/07/02 13:43:58;;;;;;;;;;;34.80;99.90;;;;;;5039007;28;19925;-68
2022/07/02 13:46:25;;;;;;;;;;;34.40;99.90;;;;;;5046510;28;19929;-69
2022/07/02 13:48:52;;;;;;;;;;;33.00;99.90;;;;;;5041780;28;19925;-67
2022/07/02 13:51:18;;;;;;;;;;;33.80;99.90;;;;;;5062023;28;19932;-67
2022/07/02 13:53:47;;;;;;;;;;;34.80;99.90;;;;;;5049412;28;19994;-70
2022/07/02 13:56:13;;;;;;;;;;;34.70;99.90;;;;;;5045740;28;19928;-69
2022/07/02 13:58:40;;;;;;;;;;;35.20;99.90;;;;;;5043193;28;19925;-68
2022/07/02 14:01:07;;;;;;;;;;;34.40;99.90;;;;;;5041373;28;19979;-68
2022/07/02 14:03:34;;;;;;;;;;;33.80;99.90;;;;;;5044015;28;19929;-69
2022/07/02 14:06:00;;;;;;;;;;;34.30;99.90;;;;;;5058116;28;19925;-68
2022/07/02 14:08:27;;;;;;;;;;;34.70;99.90;;;;;;5041418;28;20285;-68
2022/07/02 14:10:56;;;;;;;;;;;34.40;99.90;;;;;;5041611;28;19929;-68
2022/07/02 14:13:22;;;;;;;;;;;34.10;99.90;;;;;;5037687;28;19925;-69
2022/07/02 14:15:49;;;;;;;;;;;33.20;99.90;;;;;;5039857;28;20375;-69
2022/07/02 14:18:16;;;;;;;;;;;32.40;99.90;;;;;;5044581;28;19976;-68
2022/07/02 14:20:43;;;;;;;;;;;33.20;99.90;;;;;;5058039;28;19925;-69
2022/07/02 14:23:10;;;;;;;;;;;33.90;99.90;;;;;;5038206;28;19941;-70
2022/07/02 14:25:36;;;;;;;;;;;35.10;99.90;;;;;;5036098;28;19928;-68